sensor_id;sensor_type;location;lat;lon;timestamp;pressure;altitude;pressure_sealevel;temperature;humidity
78210;BME280;67485;48.816;9.930;2023-09-30T00:00:43;97654.13;;;16.57;78.06
78210;BME280;67485;48.816;9.930;2023-09-30T00:03:08;97669.22;;;16.55;77.87
78210;BME280;67485;48.816;9.930;2023-09-30T00:05:36;97664.16;;;16.49;78.55
78210;BME280;67485;48.816;9.930;2023-09-30T00:08:03;97657.88;;;16.51;78.08
78210;BME280;67485;48.816;9.930;2023-09-30T00:10:29;97663.84;;;16.57;78.38
78210;BME280;67485;48.816;9.930;2023-09-30T00:12:56;97654.81;;;16.62;77.99
78210;BME280;67485;48.816;9.930;2023-09-30T00:15:22;97665.16;;;16.68;77.49
78210;BME280;67485;48.816;9.930;2023-09-30T00:17:48;97657.13;;;16.72;77.18
78210;BME280;67485;48.816;9.930;2023-09-30T00:20:14;97654.34;;;16.75;78.06
78210;BME280;67485;48.816;9.930;2023-09-30T00:22:43;97652.69;;;16.72;78.14
78210;BME280;67485;48.816;9.930;2023-09-30T00:25:09;97651.69;;;16.75;77.89
78210;BME280;67485;48.816;9.930;2023-09-30T00:27:35;97654.25;;;16.78;77.56
78210;BME280;67485;48.816;9.930;2023-09-30T00:30:01;97650.03;;;16.72;77.92
78210;BME280;67485;48.816;9.930;2023-09-30T00:32:29;97645.66;;;16.71;78.00
78210;BME280;67485;48.816;9.930;2023-09-30T00:34:56;97651.81;;;16.72;77.68
78210;BME280;67485;48.816;9.930;2023-09-30T00:37:21;97645.84;;;16.66;77.94
78210;BME280;67485;48.816;9.930;2023-09-30T00:39:47;97645.88;;;16.65;77.92
78210;BME280;67485;48.816;9.930;2023-09-30T00:42:13;97648.72;;;16.60;78.11
78210;BME280;67485;48.816;9.930;2023-09-30T00:44:38;97642.97;;;16.49;78.30
78210;BME280;67485;48.816;9.930;2023-09-30T00:47:04;97641.25;;;16.48;78.88
78210;BME280;67485;48.816;9.930;2023-09-30T00:49:31;97646.00;;;16.38;79.23
78210;BME280;67485;48.816;9.930;2023-09-30T00:51:57;97644.44;;;16.32;79.41
78210;BME280;67485;48.816;9.930;2023-09-30T00:54:24;97654.28;;;16.29;79.69
78210;BME280;67485;48.816;9.930;2023-09-30T00:56:52;97645.47;;;16.28;79.82
78210;BME280;67485;48.816;9.930;2023-09-30T00:59:21;97645.81;;;16.19;80.41
78210;BME280;67485;48.816;9.930;2023-09-30T01:01:48;97645.91;;;16.16;80.57
78210;BME280;67485;48.816;9.930;2023-09-30T01:04:14;97643.47;;;16.11;80.65
78210;BME280;67485;48.816;9.930;2023-09-30T01:06:40;97642.72;;;16.08;81.01
78210;BME280;67485;48.816;9.930;2023-09-30T01:09:07;97639.47;;;15.99;81.08
78210;BME280;67485;48.816;9.930;2023-09-30T01:11:34;97646.47;;;16.00;81.65
78210;BME280;67485;48.816;9.930;2023-09-30T01:14:00;97648.09;;;16.04;81.18
78210;BME280;67485;48.816;9.930;2023-09-30T01:16:25;97649.22;;;15.97;81.41
78210;BME280;67485;48.816;9.930;2023-09-30T01:18:51;97647.66;;;15.92;81.69
78210;BME280;67485;48.816;9.930;2023-09-30T01:21:18;97649.50;;;15.89;81.86
78210;BME280;67485;48.816;9.930;2023-09-30T01:23:44;97645.34;;;15.81;82.09
78210;BME280;67485;48.816;9.930;2023-09-30T01:26:12;97654.19;;;15.80;82.28
78210;BME280;67485;48.816;9.930;2023-09-30T01:28:39;97657.78;;;15.79;82.53
78210;BME280;67485;48.816;9.930;2023-09-30T01:31:05;97655.88;;;15.84;82.09
78210;BME280;67485;48.816;9.930;2023-09-30T01:33:32;97655.69;;;15.88;82.06
78210;BME280;67485;48.816;9.930;2023-09-30T01:35:59;97664.50;;;15.89;81.56
78210;BME280;67485;48.816;9.930;2023-09-30T01:38:25;97666.31;;;15.87;81.74
78210;BME280;67485;48.816;9.930;2023-09-30T01:40:51;97661.78;;;15.91;81.08
78210;BME280;67485;48.816;9.930;2023-09-30T01:43:17;97671.31;;;15.96;81.40
78210;BME280;67485;48.816;9.930;2023-09-30T01:45:43;97680.03;;;15.98;81.06
78210;BME280;67485;48.816;9.930;2023-09-30T01:48:10;97671.81;;;16.06;80.70
78210;BME280;67485;48.816;9.930;2023-09-30T01:50:39;97668.44;;;16.02;80.84
78210;BME280;67485;48.816;9.930;2023-09-30T01:53:06;97668.25;;;16.07;81.16
78210;BME280;67485;48.816;9.930;2023-09-30T01:55:37;97667.28;;;16.10;80.56
78210;BME280;67485;48.816;9.930;2023-09-30T01:58:03;97663.94;;;16.04;80.89
78210;BME280;67485;48.816;9.930;2023-09-30T02:00:29;97661.38;;;16.03;81.16
78210;BME280;67485;48.816;9.930;2023-09-30T02:02:56;97664.88;;;16.03;81.15
78210;BME280;67485;48.816;9.930;2023-09-30T02:05:22;97660.94;;;15.90;82.01
78210;BME280;67485;48.816;9.930;2023-09-30T02:07:50;97659.97;;;15.93;81.85
78210;BME280;67485;48.816;9.930;2023-09-30T02:10:16;97664.59;;;15.86;82.02
78210;BME280;67485;48.816;9.930;2023-09-30T02:12:45;97667.94;;;15.91;81.90
78210;BME280;67485;48.816;9.930;2023-09-30T02:15:12;97663.41;;;15.95;82.17
78210;BME280;67485;48.816;9.930;2023-09-30T02:17:38;97667.72;;;15.97;81.92
78210;BME280;67485;48.816;9.930;2023-09-30T02:20:04;97664.22;;;15.97;81.90
78210;BME280;67485;48.816;9.930;2023-09-30T02:22:33;97671.41;;;15.93;82.14
78210;BME280;67485;48.816;9.930;2023-09-30T02:24:58;97669.66;;;15.92;82.24
78210;BME280;67485;48.816;9.930;2023-09-30T02:27:24;97675.72;;;15.96;82.14
78210;BME280;67485;48.816;9.930;2023-09-30T02:29:49;97678.28;;;15.97;82.03
78210;BME280;67485;48.816;9.930;2023-09-30T02:32:16;97673.00;;;15.97;82.21
78210;BME280;67485;48.816;9.930;2023-09-30T02:34:41;97682.66;;;15.98;81.83
78210;BME280;67485;48.816;9.930;2023-09-30T02:37:08;97687.88;;;16.01;82.21
78210;BME280;67485;48.816;9.930;2023-09-30T02:39:36;97689.63;;;16.01;82.06
78210;BME280;67485;48.816;9.930;2023-09-30T02:42:03;97694.75;;;16.05;81.80
78210;BME280;67485;48.816;9.930;2023-09-30T02:44:28;97690.59;;;15.98;82.43
78210;BME280;67485;48.816;9.930;2023-09-30T02:46:54;97697.63;;;15.99;82.62
78210;BME280;67485;48.816;9.930;2023-09-30T02:49:21;97706.47;;;15.98;82.48
78210;BME280;67485;48.816;9.930;2023-09-30T02:51:46;97707.38;;;15.97;82.47
78210;BME280;67485;48.816;9.930;2023-09-30T02:54:12;97711.88;;;15.95;83.01
78210;BME280;67485;48.816;9.930;2023-09-30T02:56:42;97705.81;;;15.92;83.04
78210;BME280;67485;48.816;9.930;2023-09-30T02:59:08;97713.69;;;15.93;82.81
78210;BME280;67485;48.816;9.930;2023-09-30T03:01:34;97709.16;;;15.97;82.88
78210;BME280;67485;48.816;9.930;2023-09-30T03:03:59;97705.66;;;15.96;82.27
78210;BME280;67485;48.816;9.930;2023-09-30T03:06:25;97713.81;;;15.90;83.48
78210;BME280;67485;48.816;9.930;2023-09-30T03:08:51;97713.63;;;15.95;82.93
78210;BME280;67485;48.816;9.930;2023-09-30T03:11:17;97716.28;;;15.95;82.95
78210;BME280;67485;48.816;9.930;2023-09-30T03:13:45;97706.47;;;15.98;82.67
78210;BME280;67485;48.816;9.930;2023-09-30T03:16:11;97712.63;;;15.99;82.81
78210;BME280;67485;48.816;9.930;2023-09-30T03:18:37;97720.50;;;16.00;82.45
78210;BME280;67485;48.816;9.930;2023-09-30T03:21:13;97718.69;;;16.02;82.30
78210;BME280;67485;48.816;9.930;2023-09-30T03:23:39;97724.81;;;16.03;82.36
78210;BME280;67485;48.816;9.930;2023-09-30T03:26:05;97721.31;;;16.02;82.13
78210;BME280;67485;48.816;9.930;2023-09-30T03:28:38;97720.59;;;15.97;82.44
78210;BME280;67485;48.816;9.930;2023-09-30T03:31:05;97718.06;;;15.94;82.81
78210;BME280;67485;48.816;9.930;2023-09-30T03:33:32;97712.28;;;15.83;83.24
78210;BME280;67485;48.816;9.930;2023-09-30T03:35:58;97719.34;;;15.81;83.31
78210;BME280;67485;48.816;9.930;2023-09-30T03:38:25;97717.72;;;15.77;83.86
78210;BME280;67485;48.816;9.930;2023-09-30T03:40:51;97722.84;;;15.83;83.43
78210;BME280;67485;48.816;9.930;2023-09-30T03:43:19;97711.38;;;15.84;83.52
78210;BME280;67485;48.816;9.930;2023-09-30T03:45:44;97707.84;;;15.83;83.44
78210;BME280;67485;48.816;9.930;2023-09-30T03:48:10;97717.50;;;15.84;83.82
78210;BME280;67485;48.816;9.930;2023-09-30T03:50:37;97716.72;;;15.81;83.61
78210;BME280;67485;48.816;9.930;2023-09-30T03:53:04;97719.66;;;15.71;84.23
78210;BME280;67485;48.816;9.930;2023-09-30T03:55:30;97727.75;;;15.67;84.58
78210;BME280;67485;48.816;9.930;2023-09-30T03:57:57;97716.31;;;15.66;85.08
78210;BME280;67485;48.816;9.930;2023-09-30T04:00:23;97719.88;;;15.65;84.97
78210;BME280;67485;48.816;9.930;2023-09-30T04:02:50;97727.09;;;15.60;85.34
78210;BME280;67485;48.816;9.930;2023-09-30T04:05:20;97720.97;;;15.58;85.31
78210;BME280;67485;48.816;9.930;2023-09-30T04:07:50;97714.66;;;15.62;84.94
78210;BME280;67485;48.816;9.930;2023-09-30T04:10:16;97716.19;;;15.69;85.03
78210;BME280;67485;48.816;9.930;2023-09-30T04:12:42;97708.38;;;15.66;84.64
78210;BME280;67485;48.816;9.930;2023-09-30T04:15:07;97709.09;;;15.71;84.77
78210;BME280;67485;48.816;9.930;2023-09-30T04:17:37;97715.19;;;15.73;84.22
78210;BME280;67485;48.816;9.930;2023-09-30T04:20:06;97707.16;;;15.77;84.15
78210;BME280;67485;48.816;9.930;2023-09-30T04:22:34;97716.13;;;15.72;84.60
78210;BME280;67485;48.816;9.930;2023-09-30T04:25:01;97713.03;;;15.58;85.52
78210;BME280;67485;48.816;9.930;2023-09-30T04:27:27;97717.69;;;15.51;85.59
78210;BME280;67485;48.816;9.930;2023-09-30T04:29:53;97714.34;;;15.45;86.76
78210;BME280;67485;48.816;9.930;2023-09-30T04:32:19;97725.84;;;15.44;86.63
78210;BME280;67485;48.816;9.930;2023-09-30T04:34:45;97728.28;;;15.50;86.32
78210;BME280;67485;48.816;9.930;2023-09-30T04:37:13;97731.69;;;15.53;85.86
78210;BME280;67485;48.816;9.930;2023-09-30T04:39:39;97733.34;;;15.57;85.29
78210;BME280;67485;48.816;9.930;2023-09-30T04:42:05;97738.56;;;15.59;85.58
78210;BME280;67485;48.816;9.930;2023-09-30T04:44:30;97747.63;;;15.50;86.26
78210;BME280;67485;48.816;9.930;2023-09-30T04:46:57;97749.50;;;15.47;86.47
78210;BME280;67485;48.816;9.930;2023-09-30T04:49:24;97736.50;;;15.40;87.18
78210;BME280;67485;48.816;9.930;2023-09-30T04:51:50;97740.63;;;15.49;86.50
78210;BME280;67485;48.816;9.930;2023-09-30T04:54:15;97741.19;;;15.59;85.55
78210;BME280;67485;48.816;9.930;2023-09-30T04:56:41;97740.28;;;15.60;85.62
78210;BME280;67485;48.816;9.930;2023-09-30T04:59:06;97743.72;;;15.62;85.14
78210;BME280;67485;48.816;9.930;2023-09-30T05:01:32;97745.41;;;15.65;84.86
78210;BME280;67485;48.816;9.930;2023-09-30T05:03:58;97750.56;;;15.69;84.18
78210;BME280;67485;48.816;9.930;2023-09-30T05:06:24;97747.72;;;15.76;83.93
78210;BME280;67485;48.816;9.930;2023-09-30T05:08:50;97744.34;;;15.70;83.99
78210;BME280;67485;48.816;9.930;2023-09-30T05:11:16;97739.28;;;15.64;84.30
78210;BME280;67485;48.816;9.930;2023-09-30T05:13:41;97746.47;;;15.59;84.80
78210;BME280;67485;48.816;9.930;2023-09-30T05:16:07;97752.59;;;15.61;84.38
78210;BME280;67485;48.816;9.930;2023-09-30T05:18:33;97767.69;;;15.56;84.40
78210;BME280;67485;48.816;9.930;2023-09-30T05:20:59;97763.31;;;15.56;84.89
78210;BME280;67485;48.816;9.930;2023-09-30T05:23:25;97756.16;;;15.60;84.38
78210;BME280;67485;48.816;9.930;2023-09-30T05:25:51;97752.47;;;15.64;84.01
78210;BME280;67485;48.816;9.930;2023-09-30T05:28:20;97745.41;;;15.65;83.87
78210;BME280;67485;48.816;9.930;2023-09-30T05:30:46;97739.47;;;15.58;84.13
78210;BME280;67485;48.816;9.930;2023-09-30T05:33:12;97741.28;;;15.56;84.06
78210;BME280;67485;48.816;9.930;2023-09-30T05:35:41;97754.31;;;15.34;85.50
78210;BME280;67485;48.816;9.930;2023-09-30T05:38:07;97758.13;;;15.23;86.15
78210;BME280;67485;48.816;9.930;2023-09-30T05:40:33;97758.28;;;15.19;86.79
78210;BME280;67485;48.816;9.930;2023-09-30T05:42:59;97758.56;;;15.10;87.12
78210;BME280;67485;48.816;9.930;2023-09-30T05:45:31;97749.72;;;15.11;87.24
78210;BME280;67485;48.816;9.930;2023-09-30T05:47:57;97758.38;;;15.16;86.84
78210;BME280;67485;48.816;9.930;2023-09-30T05:50:28;97753.09;;;15.16;87.25
78210;BME280;67485;48.816;9.930;2023-09-30T05:52:54;97756.56;;;15.18;87.33
78210;BME280;67485;48.816;9.930;2023-09-30T05:55:20;97747.88;;;15.14;87.47
78210;BME280;67485;48.816;9.930;2023-09-30T05:57:50;97738.31;;;15.10;87.39
78210;BME280;67485;48.816;9.930;2023-09-30T06:00:16;97747.81;;;15.16;87.84
78210;BME280;67485;48.816;9.930;2023-09-30T06:02:49;97748.16;;;15.33;86.39
78210;BME280;67485;48.816;9.930;2023-09-30T06:05:17;97762.84;;;15.44;85.55
78210;BME280;67485;48.816;9.930;2023-09-30T06:07:45;97763.81;;;15.39;85.99
78210;BME280;67485;48.816;9.930;2023-09-30T06:10:11;97767.41;;;15.37;86.09
78210;BME280;67485;48.816;9.930;2023-09-30T06:12:38;97762.91;;;15.40;86.00
78210;BME280;67485;48.816;9.930;2023-09-30T06:15:04;97765.25;;;15.50;85.40
78210;BME280;67485;48.816;9.930;2023-09-30T06:17:31;97767.69;;;15.56;84.92
78210;BME280;67485;48.816;9.930;2023-09-30T06:19:58;97767.56;;;15.61;84.40
78210;BME280;67485;48.816;9.930;2023-09-30T06:22:32;97775.28;;;15.67;84.01
78210;BME280;67485;48.816;9.930;2023-09-30T06:24:58;97794.44;;;15.73;83.44
78210;BME280;67485;48.816;9.930;2023-09-30T06:27:24;97804.22;;;15.71;84.38
78210;BME280;67485;48.816;9.930;2023-09-30T06:29:49;97796.06;;;15.79;84.11
78210;BME280;67485;48.816;9.930;2023-09-30T06:32:15;97788.03;;;15.82;84.46
78210;BME280;67485;48.816;9.930;2023-09-30T06:34:41;97799.28;;;15.89;84.07
78210;BME280;67485;48.816;9.930;2023-09-30T06:37:06;97809.34;;;16.04;83.13
78210;BME280;67485;48.816;9.930;2023-09-30T06:39:33;97815.91;;;16.19;82.40
78210;BME280;67485;48.816;9.930;2023-09-30T06:41:59;97812.44;;;16.19;81.88
78210;BME280;67485;48.816;9.930;2023-09-30T06:44:25;97822.25;;;16.15;82.21
78210;BME280;67485;48.816;9.930;2023-09-30T06:46:51;97817.22;;;16.08;82.63
78210;BME280;67485;48.816;9.930;2023-09-30T06:49:16;97826.31;;;15.99;83.22
78210;BME280;67485;48.816;9.930;2023-09-30T06:51:42;97839.88;;;16.15;82.34
78210;BME280;67485;48.816;9.930;2023-09-30T06:54:08;97824.63;;;16.23;82.35
78210;BME280;67485;48.816;9.930;2023-09-30T06:56:34;97821.66;;;16.32;81.97
78210;BME280;67485;48.816;9.930;2023-09-30T06:59:01;97838.75;;;16.49;81.24
78210;BME280;67485;48.816;9.930;2023-09-30T07:01:27;97834.88;;;16.59;80.28
78210;BME280;67485;48.816;9.930;2023-09-30T07:03:52;97840.75;;;16.67;79.73
78210;BME280;67485;48.816;9.930;2023-09-30T07:06:24;97843.50;;;16.64;80.84
78210;BME280;67485;48.816;9.930;2023-09-30T07:08:51;97844.75;;;16.79;79.63
78210;BME280;67485;48.816;9.930;2023-09-30T07:11:16;97840.91;;;16.88;78.72
78210;BME280;67485;48.816;9.930;2023-09-30T07:13:42;97841.72;;;16.90;78.25
78210;BME280;67485;48.816;9.930;2023-09-30T07:16:08;97852.22;;;16.93;78.24
78210;BME280;67485;48.816;9.930;2023-09-30T07:18:33;97855.19;;;16.84;78.62
78210;BME280;67485;48.816;9.930;2023-09-30T07:20:59;97855.13;;;16.85;78.18
78210;BME280;67485;48.816;9.930;2023-09-30T07:23:25;97848.31;;;17.04;77.34
78210;BME280;67485;48.816;9.930;2023-09-30T07:25:50;97836.19;;;16.98;77.44
78210;BME280;67485;48.816;9.930;2023-09-30T07:28:16;97830.00;;;16.97;77.51
78210;BME280;67485;48.816;9.930;2023-09-30T07:30:41;97833.34;;;17.02;77.24
78210;BME280;67485;48.816;9.930;2023-09-30T07:33:08;97843.91;;;17.04;77.02
78210;BME280;67485;48.816;9.930;2023-09-30T07:35:34;97854.59;;;17.01;77.03
78210;BME280;67485;48.816;9.930;2023-09-30T07:38:00;97870.69;;;16.96;77.01
78210;BME280;67485;48.816;9.930;2023-09-30T07:40:25;97860.66;;;17.05;77.36
78210;BME280;67485;48.816;9.930;2023-09-30T07:42:53;97867.19;;;17.20;76.76
78210;BME280;67485;48.816;9.930;2023-09-30T07:45:19;97865.28;;;17.47;75.65
78210;BME280;67485;48.816;9.930;2023-09-30T07:47:46;97872.19;;;17.51;75.31
78210;BME280;67485;48.816;9.930;2023-09-30T07:50:12;97872.09;;;17.54;75.37
78210;BME280;67485;48.816;9.930;2023-09-30T07:52:39;97855.63;;;17.92;73.79
78210;BME280;67485;48.816;9.930;2023-09-30T07:55:09;97861.06;;;18.33;71.50
78210;BME280;67485;48.816;9.930;2023-09-30T07:57:35;97862.81;;;18.12;70.50
78210;BME280;67485;48.816;9.930;2023-09-30T08:00:01;97859.81;;;18.20;71.48
78210;BME280;67485;48.816;9.930;2023-09-30T08:02:35;97875.84;;;18.39;70.13
78210;BME280;67485;48.816;9.930;2023-09-30T08:05:02;97865.88;;;18.87;68.71
78210;BME280;67485;48.816;9.930;2023-09-30T08:07:28;97862.53;;;18.82;68.83
78210;BME280;67485;48.816;9.930;2023-09-30T08:09:54;97870.47;;;18.83;68.49
78210;BME280;67485;48.816;9.930;2023-09-30T08:12:19;97866.41;;;18.95;68.28
78210;BME280;67485;48.816;9.930;2023-09-30T08:14:45;97874.31;;;19.17;66.44
78210;BME280;67485;48.816;9.930;2023-09-30T08:17:10;97871.03;;;19.31;65.45
78210;BME280;67485;48.816;9.930;2023-09-30T08:19:37;97871.75;;;19.35;65.33
78210;BME280;67485;48.816;9.930;2023-09-30T08:22:02;97873.59;;;19.14;65.54
78210;BME280;67485;48.816;9.930;2023-09-30T08:24:29;97871.53;;;19.00;65.77
78210;BME280;67485;48.816;9.930;2023-09-30T08:26:55;97857.72;;;19.52;64.48
78210;BME280;67485;48.816;9.930;2023-09-30T08:29:23;97858.91;;;19.64;62.76
78210;BME280;67485;48.816;9.930;2023-09-30T08:31:49;97867.72;;;19.26;63.87
78210;BME280;67485;48.816;9.930;2023-09-30T08:34:16;97868.44;;;19.30;64.28
78210;BME280;67485;48.816;9.930;2023-09-30T08:36:42;97864.00;;;19.30;64.08
78210;BME280;67485;48.816;9.930;2023-09-30T08:39:08;97861.13;;;19.35;63.44
78210;BME280;67485;48.816;9.930;2023-09-30T08:41:36;97869.06;;;19.93;62.26
78210;BME280;67485;48.816;9.930;2023-09-30T08:44:03;97865.47;;;19.95;61.14
78210;BME280;67485;48.816;9.930;2023-09-30T08:46:31;97859.84;;;19.82;62.18
78210;BME280;67485;48.816;9.930;2023-09-30T08:49:02;97862.97;;;19.33;63.09
78210;BME280;67485;48.816;9.930;2023-09-30T08:51:29;97845.59;;;19.25;62.96
78210;BME280;67485;48.816;9.930;2023-09-30T08:53:56;97853.25;;;19.52;62.19
78210;BME280;67485;48.816;9.930;2023-09-30T08:56:26;97843.31;;;19.75;61.67
78210;BME280;67485;48.816;9.930;2023-09-30T08:58:55;97829.97;;;19.57;61.88
78210;BME280;67485;48.816;9.930;2023-09-30T09:01:22;97838.84;;;19.75;61.96
78210;BME280;67485;48.816;9.930;2023-09-30T09:03:47;97848.19;;;20.57;59.11
78210;BME280;67485;48.816;9.930;2023-09-30T09:06:25;97845.25;;;20.81;57.23
78210;BME280;67485;48.816;9.930;2023-09-30T09:08:51;97850.63;;;20.08;59.14
78210;BME280;67485;48.816;9.930;2023-09-30T09:11:17;97848.09;;;20.59;58.01
78210;BME280;67485;48.816;9.930;2023-09-30T09:13:48;97851.00;;;20.37;58.45
78210;BME280;67485;48.816;9.930;2023-09-30T09:16:16;97845.41;;;19.87;60.49
78210;BME280;67485;48.816;9.930;2023-09-30T09:18:43;97832.31;;;19.64;60.54
78210;BME280;67485;48.816;9.930;2023-09-30T09:21:14;97841.53;;;19.95;59.36
78210;BME280;67485;48.816;9.930;2023-09-30T09:24:05;97839.56;;;21.54;54.39
78210;BME280;67485;48.816;9.930;2023-09-30T09:26:31;97837.66;;;22.53;50.86
78210;BME280;67485;48.816;9.930;2023-09-30T09:29:03;97854.78;;;21.86;50.73
78210;BME280;67485;48.816;9.930;2023-09-30T09:31:34;97843.09;;;21.89;50.74
78210;BME280;67485;48.816;9.930;2023-09-30T09:34:00;97831.38;;;23.13;47.90
78210;BME280;67485;48.816;9.930;2023-09-30T09:36:42;97831.03;;;24.04;46.16
78210;BME280;67485;48.816;9.930;2023-09-30T09:39:09;97843.94;;;24.52;46.13
78210;BME280;67485;48.816;9.930;2023-09-30T09:41:51;97849.94;;;24.56;45.31
78210;BME280;67485;48.816;9.930;2023-09-30T09:44:19;97840.59;;;24.49;45.98
78210;BME280;67485;48.816;9.930;2023-09-30T09:46:45;97839.53;;;25.04;45.51
78210;BME280;67485;48.816;9.930;2023-09-30T09:49:12;97840.19;;;25.21;43.99
78210;BME280;67485;48.816;9.930;2023-09-30T09:51:39;97832.69;;;25.00;43.82
78210;BME280;67485;48.816;9.930;2023-09-30T09:54:06;97829.19;;;25.76;43.24
78210;BME280;67485;48.816;9.930;2023-09-30T09:56:34;97835.19;;;26.41;41.81
78210;BME280;67485;48.816;9.930;2023-09-30T09:59:01;97827.75;;;26.20;40.93
78210;BME280;67485;48.816;9.930;2023-09-30T10:01:30;97832.25;;;25.19;43.10
78210;BME280;67485;48.816;9.930;2023-09-30T10:03:56;97830.44;;;26.20;41.38
78210;BME280;67485;48.816;9.930;2023-09-30T10:06:22;97830.72;;;26.77;40.58
78210;BME280;67485;48.816;9.930;2023-09-30T10:08:50;97830.78;;;27.11;39.59
78210;BME280;67485;48.816;9.930;2023-09-30T10:11:18;97826.50;;;26.13;40.38
78210;BME280;67485;48.816;9.930;2023-09-30T10:14:09;97823.22;;;23.72;45.15
78210;BME280;67485;48.816;9.930;2023-09-30T10:16:55;97811.44;;;23.33;47.20
78210;BME280;67485;48.816;9.930;2023-09-30T10:19:22;97810.16;;;25.03;43.22
78210;BME280;67485;48.816;9.930;2023-09-30T10:24:46;97821.28;;;24.03;44.52
78210;BME280;67485;48.816;9.930;2023-09-30T10:35:17;97808.66;;;25.12;41.54
78210;BME280;67485;48.816;9.930;2023-09-30T10:37:44;97813.28;;;24.97;42.03
78210;BME280;67485;48.816;9.930;2023-09-30T10:40:26;97814.97;;;25.36;41.21
78210;BME280;67485;48.816;9.930;2023-09-30T10:42:52;97817.22;;;25.30;41.24
78210;BME280;67485;48.816;9.930;2023-09-30T10:50:56;97818.56;;;26.35;40.37
78210;BME280;67485;48.816;9.930;2023-09-30T10:53:24;97809.25;;;27.22;37.18
78210;BME280;67485;48.816;9.930;2023-09-30T10:56:00;97806.03;;;28.08;36.18
78210;BME280;67485;48.816;9.930;2023-09-30T10:58:46;97805.94;;;28.30;36.26
78210;BME280;67485;48.816;9.930;2023-09-30T11:01:14;97798.63;;;29.17;34.07
78210;BME280;67485;48.816;9.930;2023-09-30T11:03:41;97800.41;;;28.86;34.03
78210;BME280;67485;48.816;9.930;2023-09-30T11:06:07;97790.59;;;27.98;34.47
78210;BME280;67485;48.816;9.930;2023-09-30T11:08:41;97790.16;;;27.14;36.16
78210;BME280;67485;48.816;9.930;2023-09-30T11:11:10;97786.47;;;26.92;36.50
78210;BME280;67485;48.816;9.930;2023-09-30T11:13:36;97783.78;;;27.72;35.80
78210;BME280;67485;48.816;9.930;2023-09-30T11:16:03;97780.91;;;27.52;35.13
78210;BME280;67485;48.816;9.930;2023-09-30T11:18:34;97783.44;;;26.61;36.46
78210;BME280;67485;48.816;9.930;2023-09-30T11:21:09;97780.97;;;25.37;37.97
78210;BME280;67485;48.816;9.930;2023-09-30T11:23:36;97775.97;;;24.40;38.89
78210;BME280;67485;48.816;9.930;2023-09-30T11:26:03;97769.38;;;23.50;38.89
78210;BME280;67485;48.816;9.930;2023-09-30T11:28:38;97761.59;;;22.89;41.12
78210;BME280;67485;48.816;9.930;2023-09-30T11:31:08;97759.75;;;23.89;39.79
78210;BME280;67485;48.816;9.930;2023-09-30T11:33:51;97756.72;;;25.25;37.64
78210;BME280;67485;48.816;9.930;2023-09-30T11:36:19;97749.13;;;26.18;35.23
78210;BME280;67485;48.816;9.930;2023-09-30T11:38:47;97748.59;;;27.07;34.34
78210;BME280;67485;48.816;9.930;2023-09-30T11:41:13;97758.13;;;26.99;34.79
78210;BME280;67485;48.816;9.930;2023-09-30T11:43:45;97759.28;;;27.86;34.16
78210;BME280;67485;48.816;9.930;2023-09-30T11:46:24;97763.97;;;27.73;33.96
78210;BME280;67485;48.816;9.930;2023-09-30T11:49:02;97752.69;;;27.79;33.58
78210;BME280;67485;48.816;9.930;2023-09-30T11:51:29;97750.78;;;28.13;33.07
78210;BME280;67485;48.816;9.930;2023-09-30T11:53:56;97744.09;;;27.85;31.18
78210;BME280;67485;48.816;9.930;2023-09-30T11:56:25;97751.53;;;27.49;32.64
78210;BME280;67485;48.816;9.930;2023-09-30T11:58:55;97765.28;;;25.81;33.86
78210;BME280;67485;48.816;9.930;2023-09-30T12:01:21;97761.44;;;24.96;36.46
78210;BME280;67485;48.816;9.930;2023-09-30T12:03:48;97762.38;;;24.03;39.53
78210;BME280;67485;48.816;9.930;2023-09-30T12:06:14;97763.47;;;23.59;40.92
78210;BME280;67485;48.816;9.930;2023-09-30T12:08:42;97768.16;;;23.55;41.33
78210;BME280;67485;48.816;9.930;2023-09-30T12:11:08;97775.28;;;23.69;40.98
78210;BME280;67485;48.816;9.930;2023-09-30T12:13:33;97775.97;;;24.00;40.11
78210;BME280;67485;48.816;9.930;2023-09-30T12:15:59;97771.53;;;23.15;41.44
78210;BME280;67485;48.816;9.930;2023-09-30T12:18:25;97784.94;;;22.56;42.76
78210;BME280;67485;48.816;9.930;2023-09-30T12:20:50;97778.84;;;22.08;43.61
78210;BME280;67485;48.816;9.930;2023-09-30T12:23:18;97772.91;;;22.33;43.42
78210;BME280;67485;48.816;9.930;2023-09-30T12:25:44;97775.47;;;22.50;44.04
78210;BME280;67485;48.816;9.930;2023-09-30T12:28:10;97782.94;;;22.13;43.59
78210;BME280;67485;48.816;9.930;2023-09-30T12:30:35;97781.78;;;21.87;43.74
78210;BME280;67485;48.816;9.930;2023-09-30T12:33:01;97776.13;;;21.77;43.91
78210;BME280;67485;48.816;9.930;2023-09-30T12:35:27;97773.34;;;21.95;43.39
78210;BME280;67485;48.816;9.930;2023-09-30T12:37:53;97771.63;;;21.94;43.85
78210;BME280;67485;48.816;9.930;2023-09-30T12:40:18;97776.13;;;21.77;43.79
78210;BME280;67485;48.816;9.930;2023-09-30T12:42:44;97766.22;;;21.79;43.39
78210;BME280;67485;48.816;9.930;2023-09-30T12:45:11;97761.47;;;21.84;44.32
78210;BME280;67485;48.816;9.930;2023-09-30T12:47:37;97768.81;;;21.65;43.87
78210;BME280;67485;48.816;9.930;2023-09-30T12:50:04;97766.66;;;21.56;44.72
78210;BME280;67485;48.816;9.930;2023-09-30T12:52:29;97758.22;;;21.47;44.77
78210;BME280;67485;48.816;9.930;2023-09-30T12:54:57;97759.00;;;21.33;44.40
78210;BME280;67485;48.816;9.930;2023-09-30T12:57:23;97756.81;;;21.40;44.89
78210;BME280;67485;48.816;9.930;2023-09-30T12:59:49;97754.75;;;21.45;44.39
78210;BME280;67485;48.816;9.930;2023-09-30T13:02:15;97758.41;;;21.76;43.78
78210;BME280;67485;48.816;9.930;2023-09-30T13:04:41;97768.38;;;21.57;44.00
78210;BME280;67485;48.816;9.930;2023-09-30T13:07:10;97761.13;;;21.27;44.19
78210;BME280;67485;48.816;9.930;2023-09-30T13:09:37;97750.44;;;21.27;44.25
78210;BME280;67485;48.816;9.930;2023-09-30T13:12:03;97753.97;;;21.11;44.52
78210;BME280;67485;48.816;9.930;2023-09-30T13:14:29;97744.63;;;21.36;45.49
78210;BME280;67485;48.816;9.930;2023-09-30T13:16:55;97741.72;;;21.57;43.76